sensor_id;sensor_type;location;lat;lon;timestamp;pressure;altitude;pressure_sealevel;temperature;humidity
22649;BME280;11491;41.942;24.220;2023-05-16T00:02:06;89786.06;;;11.71;100.00
22649;BME280;11491;41.942;24.220;2023-05-16T00:04:34;89769.69;;;11.37;100.00
22649;BME280;11491;41.942;24.220;2023-05-16T00:07:01;89784.78;;;11.46;100.00
22649;BME280;11491;41.942;24.220;2023-05-16T00:09:28;89789.16;;;11.54;100.00
22649;BME280;11491;41.942;24.220;2023-05-16T00:11:55;89778.22;;;11.62;100.00
22649;BME280;11491;41.942;24.220;2023-05-16T00:14:22;89778.00;;;11.71;100.00
22649;BME280;11491;41.942;24.220;2023-05-16T00:16:52;89781.19;;;11.57;100.00
22649;BME280;11491;41.942;24.220;2023-05-16T00:19:19;89781.13;;;11.54;100.00
22649;BME280;11491;41.942;24.220;2023-05-16T00:21:46;89767.31;;;11.52;100.00
22649;BME280;11491;41.942;24.220;2023-05-16T00:24:12;89775.75;;;11.54;100.00
22649;BME280;11491;41.942;24.220;2023-05-16T00:26:39;89771.31;;;11.61;100.00
22649;BME280;11491;41.942;24.220;2023-05-16T00:29:06;89765.34;;;11.68;100.00
22649;BME280;11491;41.942;24.220;2023-05-16T00:31:33;89765.47;;;11.75;100.00
22649;BME280;11491;41.942;24.220;2023-05-16T00:34:01;89763.34;;;11.84;99.43
22649;BME280;11491;41.942;24.220;2023-05-16T00:36:28;89728.34;;;11.54;99.11
22649;BME280;11491;41.942;24.220;2023-05-16T00:38:56;89763.16;;;11.74;99.93
22649;BME280;11491;41.942;24.220;2023-05-16T00:41:22;89763.19;;;11.77;99.17
22649;BME280;11491;41.942;24.220;2023-05-16T00:43:49;89770.13;;;11.78;99.56
22649;BME280;11491;41.942;24.220;2023-05-16T00:46:16;89756.66;;;11.75;99.51
22649;BME280;11491;41.942;24.220;2023-05-16T00:48:43;89766.47;;;11.87;98.92
22649;BME280;11491;41.942;24.220;2023-05-16T00:51:11;89757.84;;;11.77;98.92
22649;BME280;11491;41.942;24.220;2023-05-16T00:53:38;89754.88;;;11.82;99.39
22649;BME280;11491;41.942;24.220;2023-05-16T00:56:05;89754.19;;;11.85;98.80
22649;BME280;11491;41.942;24.220;2023-05-16T00:58:32;89757.22;;;11.84;98.19
22649;BME280;11491;41.942;24.220;2023-05-16T01:00:59;89749.47;;;11.79;98.05
22649;BME280;11491;41.942;24.220;2023-05-16T01:03:28;89751.81;;;11.80;97.63
22649;BME280;11491;41.942;24.220;2023-05-16T01:05:55;89751.81;;;11.80;98.48
22649;BME280;11491;41.942;24.220;2023-05-16T01:08:24;89747.22;;;11.61;98.37
22649;BME280;11491;41.942;24.220;2023-05-16T01:10:58;89742.34;;;11.48;99.91
22649;BME280;11491;41.942;24.220;2023-05-16T01:13:31;89748.28;;;11.57;99.98
22649;BME280;11491;41.942;24.220;2023-05-16T01:16:09;89742.88;;;11.53;100.00
22649;BME280;11491;41.942;24.220;2023-05-16T01:18:41;89727.38;;;11.43;100.00
22649;BME280;11491;41.942;24.220;2023-05-16T01:21:16;89732.63;;;11.39;100.00
22649;BME280;11491;41.942;24.220;2023-05-16T01:23:51;89737.16;;;11.35;100.00
22649;BME280;11491;41.942;24.220;2023-05-16T01:26:27;89727.13;;;11.32;100.00
22649;BME280;11491;41.942;24.220;2023-05-16T01:28:54;89738.69;;;11.36;100.00
22649;BME280;11491;41.942;24.220;2023-05-16T01:31:22;89730.66;;;11.36;100.00
22649;BME280;11491;41.942;24.220;2023-05-16T01:33:49;89732.94;;;11.54;100.00
22649;BME280;11491;41.942;24.220;2023-05-16T01:36:23;89728.41;;;11.19;100.00
22649;BME280;11491;41.942;24.220;2023-05-16T01:39:02;89726.78;;;11.14;100.00
22649;BME280;11491;41.942;24.220;2023-05-16T01:41:44;89726.00;;;11.14;100.00
22649;BME280;11491;41.942;24.220;2023-05-16T01:44:18;89730.94;;;11.31;100.00
22649;BME280;11491;41.942;24.220;2023-05-16T01:46:51;89715.75;;;11.35;100.00
22649;BME280;11491;41.942;24.220;2023-05-16T01:49:25;89718.69;;;11.50;100.00
22649;BME280;11491;41.942;24.220;2023-05-16T01:51:55;89726.03;;;11.53;99.91
22649;BME280;11491;41.942;24.220;2023-05-16T01:54:30;89719.97;;;11.56;99.26
22649;BME280;11491;41.942;24.220;2023-05-16T01:56:59;89719.97;;;11.56;99.05
22649;BME280;11491;41.942;24.220;2023-05-16T01:59:29;89713.91;;;11.59;99.01
22649;BME280;11491;41.942;24.220;2023-05-16T02:01:57;89708.69;;;11.66;98.38
22649;BME280;11491;41.942;24.220;2023-05-16T02:04:24;89703.47;;;11.73;96.77
22649;BME280;11491;41.942;24.220;2023-05-16T02:06:51;89699.59;;;11.71;95.97
22649;BME280;11491;41.942;24.220;2023-05-16T02:09:17;89695.94;;;11.40;97.41
22649;BME280;11491;41.942;24.220;2023-05-16T02:11:44;89696.59;;;11.33;98.05
22649;BME280;11491;41.942;24.220;2023-05-16T02:14:13;89694.34;;;11.35;98.28
22649;BME280;11491;41.942;24.220;2023-05-16T02:16:40;89690.38;;;11.29;98.36
22649;BME280;11491;41.942;24.220;2023-05-16T02:19:07;89686.56;;;11.30;98.81
22649;BME280;11491;41.942;24.220;2023-05-16T02:21:33;89690.78;;;11.12;99.09
22649;BME280;11491;41.942;24.220;2023-05-16T02:24:00;89687.69;;;11.10;100.00
22649;BME280;11491;41.942;24.220;2023-05-16T02:26:27;89679.47;;;11.18;99.63
22649;BME280;11491;41.942;24.220;2023-05-16T02:28:53;89686.34;;;11.19;99.42
22649;BME280;11491;41.942;24.220;2023-05-16T02:31:29;89684.06;;;11.18;99.73
22649;BME280;11491;41.942;24.220;2023-05-16T02:33:56;89693.03;;;11.10;99.73
22649;BME280;11491;41.942;24.220;2023-05-16T02:36:23;89693.28;;;11.20;99.67
22649;BME280;11491;41.942;24.220;2023-05-16T02:38:51;89692.41;;;11.16;99.87
22649;BME280;11491;41.942;24.220;2023-05-16T02:41:17;89681.91;;;11.27;98.91
22649;BME280;11491;41.942;24.220;2023-05-16T02:43:46;89683.97;;;11.34;98.51
22649;BME280;11491;41.942;24.220;2023-05-16T02:46:20;89696.44;;;11.26;98.19
22649;BME280;11491;41.942;24.220;2023-05-16T02:48:49;89689.31;;;11.14;99.17
22649;BME280;11491;41.942;24.220;2023-05-16T02:51:16;89675.50;;;11.12;98.71
22649;BME280;11491;41.942;24.220;2023-05-16T02:53:43;89688.25;;;10.99;100.00
22649;BME280;11491;41.942;24.220;2023-05-16T02:56:09;89683.75;;;11.04;100.00
22649;BME280;11491;41.942;24.220;2023-05-16T02:58:36;89684.06;;;11.18;99.64
22649;BME280;11491;41.942;24.220;2023-05-16T03:01:03;89677.53;;;10.99;99.82
22649;BME280;11491;41.942;24.220;2023-05-16T03:03:30;89678.41;;;11.04;100.00
22649;BME280;11491;41.942;24.220;2023-05-16T03:05:58;89687.38;;;10.95;100.00
22649;BME280;11491;41.942;24.220;2023-05-16T03:08:25;89700.41;;;10.97;100.00
22649;BME280;11491;41.942;24.220;2023-05-16T03:10:52;89693.28;;;10.85;100.00
22649;BME280;11491;41.942;24.220;2023-05-16T03:13:19;89695.63;;;10.87;100.00
22649;BME280;11491;41.942;24.220;2023-05-16T03:15:46;89700.63;;;10.88;100.00
22649;BME280;11491;41.942;24.220;2023-05-16T03:18:12;89703.06;;;10.77;100.00
22649;BME280;11491;41.942;24.220;2023-05-16T03:20:39;89715.53;;;10.89;100.00
22649;BME280;11491;41.942;24.220;2023-05-16T03:23:07;89701.91;;;10.94;100.00
22649;BME280;11491;41.942;24.220;2023-05-16T03:25:34;89705.16;;;11.04;100.00
22649;BME280;11491;41.942;24.220;2023-05-16T03:28:01;89709.66;;;10.99;100.00
22649;BME280;11491;41.942;24.220;2023-05-16T03:30:28;89702.06;;;11.02;100.00
22649;BME280;11491;41.942;24.220;2023-05-16T03:32:55;89712.75;;;11.02;100.00
22649;BME280;11491;41.942;24.220;2023-05-16T03:35:22;89705.88;;;11.01;100.00
22649;BME280;11491;41.942;24.220;2023-05-16T03:37:48;89705.38;;;11.14;100.00
22649;BME280;11491;41.942;24.220;2023-05-16T03:40:17;89704.47;;;11.26;99.83
22649;BME280;11491;41.942;24.220;2023-05-16T03:42:44;89711.78;;;11.29;99.74
22649;BME280;11491;41.942;24.220;2023-05-16T03:45:11;89699.69;;;11.35;99.20
22649;BME280;11491;41.942;24.220;2023-05-16T03:47:38;89702.56;;;11.27;98.91
22649;BME280;11491;41.942;24.220;2023-05-16T03:50:06;89697.84;;;11.20;99.90
22649;BME280;11491;41.942;24.220;2023-05-16T03:52:32;89704.91;;;11.28;99.45
22649;BME280;11491;41.942;24.220;2023-05-16T03:54:59;89686.59;;;11.11;99.68
22649;BME280;11491;41.942;24.220;2023-05-16T03:57:30;89694.34;;;11.35;99.25
22649;BME280;11491;41.942;24.220;2023-05-16T03:59:57;89702.41;;;11.19;99.20
22649;BME280;11491;41.942;24.220;2023-05-16T04:02:24;89702.34;;;11.16;99.75
22649;BME280;11491;41.942;24.220;2023-05-16T04:04:51;89706.84;;;11.12;100.00
22649;BME280;11491;41.942;24.220;2023-05-16T04:07:18;89702.56;;;11.27;100.00
22649;BME280;11491;41.942;24.220;2023-05-16T04:09:44;89700.50;;;11.01;100.00
22649;BME280;11491;41.942;24.220;2023-05-16T04:12:11;89701.16;;;11.13;100.00
22649;BME280;11491;41.942;24.220;2023-05-16T04:14:39;89699.59;;;11.32;100.00
22649;BME280;11491;41.942;24.220;2023-05-16T04:17:06;89710.41;;;11.35;100.00
22649;BME280;11491;41.942;24.220;2023-05-16T04:19:33;89696.72;;;11.40;100.00
22649;BME280;11491;41.942;24.220;2023-05-16T04:21:59;89699.94;;;11.50;100.00
22649;BME280;11491;41.942;24.220;2023-05-16T04:24:26;89701.66;;;11.58;100.00
22649;BME280;11491;41.942;24.220;2023-05-16T04:26:53;89712.47;;;11.65;99.62
22649;BME280;11491;41.942;24.220;2023-05-16T04:29:20;89691.91;;;11.69;99.02
22649;BME280;11491;41.942;24.220;2023-05-16T04:31:48;89692.03;;;11.76;99.14
22649;BME280;11491;41.942;24.220;2023-05-16T04:34:14;89686.38;;;11.81;99.03
22649;BME280;11491;41.942;24.220;2023-05-16T04:36:42;89684.72;;;11.93;98.15
22649;BME280;11491;41.942;24.220;2023-05-16T04:39:09;89689.28;;;11.92;96.94
22649;BME280;11491;41.942;24.220;2023-05-16T04:41:36;89696.25;;;11.97;96.31
22649;BME280;11491;41.942;24.220;2023-05-16T04:44:03;89685.53;;;11.97;96.23
22649;BME280;11491;41.942;24.220;2023-05-16T04:46:30;89699.34;;;11.99;96.04
22649;BME280;11491;41.942;24.220;2023-05-16T04:48:58;89672.84;;;11.94;96.17
22649;BME280;11491;41.942;24.220;2023-05-16T04:51:25;89684.13;;;12.03;96.20
22649;BME280;11491;41.942;24.220;2023-05-16T04:53:52;89627.63;;;11.69;96.34
22649;BME280;11491;41.942;24.220;2023-05-16T04:59:18;89694.06;;;12.25;95.51
22649;BME280;11491;41.942;24.220;2023-05-16T05:02:00;89664.91;;;11.78;95.80
22649;BME280;11491;41.942;24.220;2023-05-16T05:09:47;89649.28;;;12.03;96.43
22649;BME280;11491;41.942;24.220;2023-05-16T05:12:14;89591.03;;;11.54;96.49
22649;BME280;11491;41.942;24.220;2023-05-16T05:14:43;89628.56;;;12.00;96.39
22649;BME280;11491;41.942;24.220;2023-05-16T05:17:21;89694.81;;;12.49;96.11
22649;BME280;11491;41.942;24.220;2023-05-16T05:19:48;89631.59;;;12.21;96.37
22649;BME280;11491;41.942;24.220;2023-05-16T05:22:16;89650.22;;;12.37;95.97
22649;BME280;11491;41.942;24.220;2023-05-16T05:24:43;89587.28;;;11.81;94.16
22649;BME280;11491;41.942;24.220;2023-05-16T05:27:39;89586.38;;;11.93;94.92
22649;BME280;11491;41.942;24.220;2023-05-16T05:30:08;89679.78;;;12.67;94.96
22649;BME280;11491;41.942;24.220;2023-05-16T05:32:35;89556.84;;;11.90;94.99
22649;BME280;11491;41.942;24.220;2023-05-16T05:35:03;89551.53;;;11.93;94.94
22649;BME280;11491;41.942;24.220;2023-05-16T05:37:30;89609.94;;;12.60;94.42
22649;BME280;11491;41.942;24.220;2023-05-16T05:39:56;89661.06;;;13.01;94.50
22649;BME280;11491;41.942;24.220;2023-05-16T05:42:23;89620.25;;;12.85;92.63
22649;BME280;11491;41.942;24.220;2023-05-16T05:44:52;89621.56;;;12.98;92.87
22649;BME280;11491;41.942;24.220;2023-05-16T05:47:18;89513.03;;;12.32;90.38
22649;BME280;11491;41.942;24.220;2023-05-16T05:49:46;89659.28;;;13.39;91.53
22649;BME280;11491;41.942;24.220;2023-05-16T05:52:13;89647.06;;;13.45;91.48
22649;BME280;11491;41.942;24.220;2023-05-16T05:54:40;89617.78;;;13.33;91.67
22649;BME280;11491;41.942;24.220;2023-05-16T05:57:06;89600.75;;;13.22;90.01
22649;BME280;11491;41.942;24.220;2023-05-16T05:59:33;89661.13;;;13.69;89.46
22649;BME280;11491;41.942;24.220;2023-05-16T06:02:01;89597.56;;;13.43;90.02
22649;BME280;11491;41.942;24.220;2023-05-16T06:04:28;89609.31;;;13.65;88.33
22649;BME280;11491;41.942;24.220;2023-05-16T06:06:55;89667.28;;;14.07;88.28
22649;BME280;11491;41.942;24.220;2023-05-16T06:09:22;89609.78;;;13.74;86.75
22649;BME280;11491;41.942;24.220;2023-05-16T06:11:49;89655.94;;;14.24;86.72
22649;BME280;11491;41.942;24.220;2023-05-16T06:14:16;89656.34;;;14.26;86.41
22649;BME280;11491;41.942;24.220;2023-05-16T06:16:42;89607.69;;;13.97;87.22
22649;BME280;11491;41.942;24.220;2023-05-16T06:19:11;89623.13;;;14.08;85.15
22649;BME280;11491;41.942;24.220;2023-05-16T06:21:40;89623.13;;;14.08;85.54
22649;BME280;11491;41.942;24.220;2023-05-16T06:24:07;89676.22;;;14.59;85.51
22649;BME280;11491;41.942;24.220;2023-05-16T06:26:34;89655.91;;;14.69;86.74
22649;BME280;11491;41.942;24.220;2023-05-16T06:29:01;89632.78;;;14.57;84.91
22649;BME280;11491;41.942;24.220;2023-05-16T06:31:28;89579.59;;;14.43;85.54
22649;BME280;11491;41.942;24.220;2023-05-16T06:33:55;89646.88;;;14.98;85.66
22649;BME280;11491;41.942;24.220;2023-05-16T06:36:24;89574.13;;;14.25;86.31
22649;BME280;11491;41.942;24.220;2023-05-16T06:38:51;89652.19;;;14.88;87.11
22649;BME280;11491;41.942;24.220;2023-05-16T06:41:18;89648.41;;;14.99;88.23
22649;BME280;11491;41.942;24.220;2023-05-16T06:43:45;89642.66;;;15.01;87.49
22649;BME280;11491;41.942;24.220;2023-05-16T06:46:12;89581.81;;;14.85;86.87
22649;BME280;11491;41.942;24.220;2023-05-16T06:48:39;89620.44;;;15.18;85.97
22649;BME280;11491;41.942;24.220;2023-05-16T06:51:06;89603.94;;;15.23;87.13
22649;BME280;11491;41.942;24.220;2023-05-16T06:53:34;89563.97;;;15.40;86.69
22649;BME280;11491;41.942;24.220;2023-05-16T06:56:01;89538.53;;;15.23;85.36
22649;BME280;11491;41.942;24.220;2023-05-16T06:58:28;89567.03;;;15.31;84.68
22649;BME280;11491;41.942;24.220;2023-05-16T07:00:55;89642.28;;;15.97;84.82
22649;BME280;11491;41.942;24.220;2023-05-16T07:03:22;89561.00;;;15.74;84.05
22649;BME280;11491;41.942;24.220;2023-05-16T07:05:49;89633.91;;;16.60;82.58
22649;BME280;11491;41.942;24.220;2023-05-16T07:08:17;89572.63;;;16.42;80.68
22649;BME280;11491;41.942;24.220;2023-05-16T07:10:45;89618.81;;;17.09;80.02
22649;BME280;11491;41.942;24.220;2023-05-16T07:13:12;89611.84;;;17.22;79.25
22649;BME280;11491;41.942;24.220;2023-05-16T07:15:39;89611.00;;;17.39;76.34
22649;BME280;11491;41.942;24.220;2023-05-16T07:18:06;89555.53;;;17.17;76.77
22649;BME280;11491;41.942;24.220;2023-05-16T07:20:32;89615.50;;;17.71;77.29
22649;BME280;11491;41.942;24.220;2023-05-16T07:22:59;89615.47;;;17.78;78.17
22649;BME280;11491;41.942;24.220;2023-05-16T07:25:26;89610.75;;;18.04;77.22
22649;BME280;11491;41.942;24.220;2023-05-16T07:27:54;89600.53;;;18.29;74.14
22649;BME280;11491;41.942;24.220;2023-05-16T07:30:21;89602.66;;;18.52;75.53
22649;BME280;11491;41.942;24.220;2023-05-16T07:32:48;89593.34;;;18.57;73.89
22649;BME280;11491;41.942;24.220;2023-05-16T07:35:15;89590.94;;;18.70;71.37
22649;BME280;11491;41.942;24.220;2023-05-16T07:37:41;89580.34;;;18.90;72.73
22649;BME280;11491;41.942;24.220;2023-05-16T07:40:09;89585.19;;;19.09;71.89
22649;BME280;11491;41.942;24.220;2023-05-16T07:42:36;89578.34;;;19.35;73.86
22649;BME280;11491;41.942;24.220;2023-05-16T07:45:05;89572.25;;;19.58;70.79
22649;BME280;11491;41.942;24.220;2023-05-16T07:47:32;89572.69;;;19.88;71.18
22649;BME280;11491;41.942;24.220;2023-05-16T07:49:59;89575.16;;;20.06;71.76
22649;BME280;11491;41.942;24.220;2023-05-16T07:52:26;89565.78;;;20.37;71.09
22649;BME280;11491;41.942;24.220;2023-05-16T07:54:53;89570.31;;;20.71;69.21
22649;BME280;11491;41.942;24.220;2023-05-16T07:57:20;89578.84;;;20.97;68.45
22649;BME280;11491;41.942;24.220;2023-05-16T07:59:47;89558.28;;;20.72;66.90
22649;BME280;11491;41.942;24.220;2023-05-16T08:02:15;89575.16;;;20.83;64.61
22649;BME280;11491;41.942;24.220;2023-05-16T08:04:42;89571.28;;;20.84;66.27
22649;BME280;11491;41.942;24.220;2023-05-16T08:07:08;89574.09;;;21.01;66.45
22649;BME280;11491;41.942;24.220;2023-05-16T08:09:35;89562.47;;;21.00;65.97
22649;BME280;11491;41.942;24.220;2023-05-16T08:12:02;89563.94;;;21.05;65.18
22649;BME280;11491;41.942;24.220;2023-05-16T08:14:29;89564.56;;;21.13;65.87
22649;BME280;11491;41.942;24.220;2023-05-16T08:16:57;89530.06;;;20.90;65.13
22649;BME280;11491;41.942;24.220;2023-05-16T08:19:26;89545.44;;;20.96;66.66
22649;BME280;11491;41.942;24.220;2023-05-16T08:21:53;89534.53;;;21.00;65.99
22649;BME280;11491;41.942;24.220;2023-05-16T08:24:20;89530.00;;;21.13;65.00
22649;BME280;11491;41.942;24.220;2023-05-16T08:26:47;89543.56;;;21.17;66.08
22649;BME280;11491;41.942;24.220;2023-05-16T08:29:14;89545.97;;;21.11;65.89
22649;BME280;11491;41.942;24.220;2023-05-16T08:31:40;89557.63;;;20.88;65.53
22649;BME280;11491;41.942;24.220;2023-05-16T08:34:07;89558.28;;;20.72;65.57
22649;BME280;11491;41.942;24.220;2023-05-16T08:36:36;89545.38;;;20.53;66.86
22649;BME280;11491;41.942;24.220;2023-05-16T08:39:03;89543.16;;;20.48;66.93
22649;BME280;11491;41.942;24.220;2023-05-16T08:41:30;89525.66;;;20.49;68.26
22649;BME280;11491;41.942;24.220;2023-05-16T08:43:57;89526.84;;;20.48;67.98
22649;BME280;11491;41.942;24.220;2023-05-16T08:46:24;89513.97;;;20.52;66.57
22649;BME280;11491;41.942;24.220;2023-05-16T08:48:58;89518.38;;;20.42;66.80
22649;BME280;11491;41.942;24.220;2023-05-16T08:51:27;89516.47;;;20.66;67.55
22649;BME280;11491;41.942;24.220;2023-05-16T08:53:59;89516.00;;;20.95;65.98
22649;BME280;11491;41.942;24.220;2023-05-16T08:56:28;89518.22;;;21.00;65.58
22649;BME280;11491;41.942;24.220;2023-05-16T08:58:57;89518.78;;;21.11;65.87
22649;BME280;11491;41.942;24.220;2023-05-16T09:01:24;89526.44;;;21.16;65.00
22649;BME280;11491;41.942;24.220;2023-05-16T09:03:51;89537.69;;;21.18;66.26
22649;BME280;11491;41.942;24.220;2023-05-16T09:06:18;89553.09;;;21.25;65.22
22649;BME280;11491;41.942;24.220;2023-05-16T09:08:44;89562.38;;;21.27;65.56
22649;BME280;11491;41.942;24.220;2023-05-16T09:11:13;89558.75;;;21.34;62.98
22649;BME280;11491;41.942;24.220;2023-05-16T09:13:40;89574.94;;;21.41;64.88
22649;BME280;11491;41.942;24.220;2023-05-16T09:16:11;89562.00;;;21.25;63.90
22649;BME280;11491;41.942;24.220;2023-05-16T09:18:38;89563.53;;;20.83;63.27
22649;BME280;11491;41.942;24.220;2023-05-16T09:21:05;89549.91;;;20.36;65.45
22649;BME280;11491;41.942;24.220;2023-05-16T09:23:33;89552.16;;;20.14;66.89
22649;BME280;11491;41.942;24.220;2023-05-16T09:26:00;89566.19;;;20.09;65.81
22649;BME280;11491;41.942;24.220;2023-05-16T09:28:28;89576.25;;;19.81;68.85
22649;BME280;11491;41.942;24.220;2023-05-16T09:30:55;89570.56;;;19.72;67.74
22649;BME280;11491;41.942;24.220;2023-05-16T09:33:26;89558.09;;;19.78;68.94
22649;BME280;11491;41.942;24.220;2023-05-16T09:35:55;89564.03;;;19.96;68.62
22649;BME280;11491;41.942;24.220;2023-05-16T09:38:23;89552.38;;;19.99;68.20
22649;BME280;11491;41.942;24.220;2023-05-16T09:40:50;89555.91;;;19.96;69.30
22649;BME280;11491;41.942;24.220;2023-05-16T09:43:21;89554.47;;;19.88;70.61
22649;BME280;11491;41.942;24.220;2023-05-16T09:45:49;89542.25;;;20.04;70.05
22649;BME280;11491;41.942;24.220;2023-05-16T09:48:16;89535.78;;;20.21;70.43
22649;BME280;11491;41.942;24.220;2023-05-16T09:50:47;89522.75;;;20.36;70.00
22649;BME280;11491;41.942;24.220;2023-05-16T09:53:15;89532.31;;;20.71;68.61
22649;BME280;11491;41.942;24.220;2023-05-16T09:55:42;89517.97;;;21.14;65.79
22649;BME280;11491;41.942;24.220;2023-05-16T09:58:09;89522.03;;;21.46;50.18
22649;BME280;11491;41.942;24.220;2023-05-16T10:00:36;89500.84;;;21.93;44.10
22649;BME280;11491;41.942;24.220;2023-05-16T10:03:04;89516.16;;;22.40;43.30
22649;BME280;11491;41.942;24.220;2023-05-16T10:05:31;89505.00;;;22.84;47.30
22649;BME280;11491;41.942;24.220;2023-05-16T10:08:01;89505.91;;;23.39;57.73
22649;BME280;11491;41.942;24.220;2023-05-16T10:10:28;89518.78;;;23.38;55.60
22649;BME280;11491;41.942;24.220;2023-05-16T10:12:57;89494.06;;;23.46;53.92
22649;BME280;11491;41.942;24.220;2023-05-16T10:15:26;89474.25;;;22.99;53.96
22649;BME280;11491;41.942;24.220;2023-05-16T10:17:54;89488.13;;;23.34;53.16
22649;BME280;11491;41.942;24.220;2023-05-16T10:20:26;89476.91;;;23.74;55.85
22649;BME280;11491;41.942;24.220;2023-05-16T10:22:54;89474.63;;;24.24;51.74
22649;BME280;11491;41.942;24.220;2023-05-16T10:25:25;89456.19;;;24.15;40.20
22649;BME280;11491;41.942;24.220;2023-05-16T10:27:54;89489.59;;;24.19;42.05
22649;BME280;11491;41.942;24.220;2023-05-16T10:30:21;89518.78;;;23.68;40.11
22649;BME280;11491;41.942;24.220;2023-05-16T10:32:49;89487.94;;;23.41;38.83
22649;BME280;11491;41.942;24.220;2023-05-16T10:35:17;89491.09;;;23.11;38.85
22649;BME280;11491;41.942;24.220;2023-05-16T10:37:46;89478.53;;;23.42;41.66
22649;BME280;11491;41.942;24.220;2023-05-16T10:40:14;89484.41;;;23.28;39.49
22649;BME280;11491;41.942;24.220;2023-05-16T10:42:44;89467.63;;;23.42;38.60
22649;BME280;11491;41.942;24.220;2023-05-16T10:45:20;89464.06;;;23.88;40.69
22649;BME280;11491;41.942;24.220;2023-05-16T10:47:54;89459.00;;;24.24;41.98
22649;BME280;11491;41.942;24.220;2023-05-16T10:50:35;89479.88;;;24.44;50.86
22649;BME280;11491;41.942;24.220;2023-05-16T10:53:18;89468.63;;;24.67;46.26
22649;BME280;11491;41.942;24.220;2023-05-16T10:56:06;89490.94;;;24.27;47.73
22649;BME280;11491;41.942;24.220;2023-05-16T10:58:45;89509.28;;;24.40;43.82
22649;BME280;11491;41.942;24.220;2023-05-16T11:01:21;89481.97;;;24.53;38.30
22649;BME280;11491;41.942;24.220;2023-05-16T11:04:03;89491.09;;;24.97;39.93
22649;BME280;11491;41.942;24.220;2023-05-16T11:06:31;89491.03;;;25.23;36.90
22649;BME280;11491;41.942;24.220;2023-05-16T11:09:06;89506.53;;;25.26;37.97
22649;BME280;11491;41.942;24.220;2023-05-16T11:11:38;89501.22;;;25.44;38.09
22649;BME280;11491;41.942;24.220;2023-05-16T11:14:06;89489.50;;;25.66;35.87
22649;BME280;11491;41.942;24.220;2023-05-16T11:16:33;89485.84;;;25.60;37.14
22649;BME280;11491;41.942;24.220;2023-05-16T11:19:03;89502.41;;;25.08;37.72
22649;BME280;11491;41.942;24.220;2023-05-16T11:24:33;89503.31;;;25.05;39.65
22649;BME280;11491;41.942;24.220;2023-05-16T11:27:01;89512.00;;;25.26;40.06
22649;BME280;11491;41.942;24.220;2023-05-16T11:29:30;89489.63;;;25.40;41.40
22649;BME280;11491;41.942;24.220;2023-05-16T11:31:58;89493.59;;;25.39;37.85
22649;BME280;11491;41.942;24.220;2023-05-16T11:34:25;89506.22;;;24.63;40.85
22649;BME280;11491;41.942;24.220;2023-05-16T11:36:52;89502.81;;;24.59;40.06
22649;BME280;11491;41.942;24.220;2023-05-16T11:39:19;89503.16;;;24.36;44.17
22649;BME280;11491;41.942;24.220;2023-05-16T11:41:47;89499.97;;;23.99;44.69
22649;BME280;11491;41.942;24.220;2023-05-16T11:44:14;89516.88;;;23.94;42.87
22649;BME280;11491;41.942;24.220;2023-05-16T11:46:41;89529.25;;;24.11;45.82
22649;BME280;11491;41.942;24.220;2023-05-16T11:49:08;89524.66;;;24.08;42.94
22649;BME280;11491;41.942;24.220;2023-05-16T11:51:37;89554.91;;;23.42;43.89
22649;BME280;11491;41.942;24.220;2023-05-16T11:54:04;89553.28;;;22.83;46.95
22649;BME280;11491;41.942;24.220;2023-05-16T11:56:31;89542.59;;;22.03;54.70
22649;BME280;11491;41.942;24.220;2023-05-16T11:59:01;89550.06;;;21.43;52.96
22649;BME280;11491;41.942;24.220;2023-05-16T12:01:31;89547.34;;;20.76;55.37
22649;BME280;11491;41.942;24.220;2023-05-16T12:03:58;89533.16;;;20.41;57.65
22649;BME280;11491;41.942;24.220;2023-05-16T12:06:25;89506.66;;;20.49;57.45
22649;BME280;11491;41.942;24.220;2023-05-16T12:08:53;89494.72;;;20.70;59.52
22649;BME280;11491;41.942;24.220;2023-05-16T12:11:22;89485.88;;;20.85;57.99
22649;BME280;11491;41.942;24.220;2023-05-16T12:13:49;89469.94;;;20.88;54.51
22649;BME280;11491;41.942;24.220;2023-05-16T12:16:18;89477.25;;;20.91;55.65
22649;BME280;11491;41.942;24.220;2023-05-16T12:18:45;89458.81;;;21.02;54.12
22649;BME280;11491;41.942;24.220;2023-05-16T12:21:12;89451.50;;;21.39;54.07
22649;BME280;11491;41.942;24.220;2023-05-16T12:23:41;89429.66;;;21.79;49.61
22649;BME280;11491;41.942;24.220;2023-05-16T12:26:07;89431.78;;;22.24;46.37
22649;BME280;11491;41.942;24.220;2023-05-16T12:28:34;89436.94;;;22.96;49.59
22649;BME280;11491;41.942;24.220;2023-05-16T12:31:10;89447.59;;;23.62;48.18
22649;BME280;11491;41.942;24.220;2023-05-16T12:33:38;89449.94;;;23.34;43.12
22649;BME280;11491;41.942;24.220;2023-05-16T12:36:12;89455.91;;;23.71;45.91
22649;BME280;11491;41.942;24.220;2023-05-16T12:38:39;89458.16;;;24.15;45.83
22649;BME280;11491;41.942;24.220;2023-05-16T12:41:06;89464.91;;;24.36;43.28
22649;BME280;11491;41.942;24.220;2023-05-16T12:43:34;89472.22;;;24.39;41.39
22649;BME280;11491;41.942;24.220;2023-05-16T12:46:01;89439.47;;;24.39;45.19
22649;BME280;11491;41.942;24.220;2023-05-16T12:48:31;89440.25;;;24.52;41.25
22649;BME280;11491;41.942;24.220;2023-05-16T12:51:09;89441.25;;;25.15;41.91
22649;BME280;11491;41.942;24.220;2023-05-16T12:53:40;89442.81;;;25.60;41.14
22649;BME280;11491;41.942;24.220;2023-05-16T12:56:08;89443.81;;;25.97;40.87
22649;BME280;11491;41.942;24.220;2023-05-16T12:58:35;89425.97;;;25.93;39.00
22649;BME280;11491;41.942;24.220;2023-05-16T13:01:02;89439.63;;;26.15;40.65
22649;BME280;11491;41.942;24.220;2023-05-16T13:03:30;89442.00;;;26.04;37.41
22649;BME280;11491;41.942;24.220;2023-05-16T13:05:57;89409.94;;;25.82;37.20